Time;durP1;ratioP1;P1;durP2;ratioP2;P2;SDS_P1;SDS_P2;PMS_P1;PMS_P2;Temp;Humidity;BMP_temperature;BMP_pressure;BME280_temperature;BME280_humidity;BME280_pressure;Samples;Min_cycle;Max_cycle;Signal;HPM_P1;HPM_P2
2022/02/14 00:01:06;;;;;;;22.77;13.80;;;;;;;4.41;79.20;99669.84;6126771;23;20033;-92
2022/02/14 00:03:55;;;;;;;;;;;;;;;;;;;;;
2022/02/14 00:07:04;;;;;;;19.58;13.23;;;;;;;4.21;78.91;99638.22;6123819;23;20098;-94
2022/02/14 00:09:54;;;;;;;24.00;12.85;;;;;;;4.10;79.20;99609.72;6126636;23;20218;-94
2022/02/14 00:12:59;;;;;;;;;;;;;;;;;;;;;
2022/02/14 00:16:08;;;;;;;;;;;;;;;;;;;;;
2022/02/14 00:18:44;;;;;;;22.17;13.23;;;;;;;4.17;78.88;99626.97;6176070;23;20016;-94
2022/02/14 00:21:35;;;;;;;21.88;13.13;;;;;;;4.07;78.88;99611.63;6216974;23;20554;-96
2022/02/14 00:24:19;;;;;;;24.48;12.75;;;;;;;3.91;79.80;99589.44;6233098;23;20025;-93
2022/02/14 00:26:53;;;;;;;22.08;11.63;;;;;;;3.88;79.86;99578.16;6228819;23;20047;-93
2022/02/14 00:29:27;;;;;;;18.38;10.75;;;;;;;4.33;79.75;99636.94;6225764;23;20055;-93
2022/02/14 00:31:57;;;;;;;19.88;11.25;;;;;;;4.08;78.97;99588.00;6221784;23;20031;-93
2022/02/14 00:34:33;;;;;;;17.95;10.02;;;;;;;4.12;78.86;99570.38;6238711;22;20027;-96
2022/02/14 00:37:08;;;;;;;15.65;9.90;;;;;;;4.16;78.89;99567.59;6239631;22;20043;-93
2022/02/14 00:39:35;;;;;;;13.75;9.13;;;;;;;4.44;77.90;99593.72;6226749;23;20020;-93
2022/02/14 00:42:05;;;;;;;17.75;9.27;;;;;;;4.72;76.88;99617.19;6221012;23;20091;-92
2022/02/14 00:44:35;;;;;;;13.25;9.07;;;;;;;4.48;75.66;99552.53;6219708;23;20017;-92
2022/02/14 00:47:03;;;;;;;16.67;8.95;;;;;;;4.60;74.92;99557.31;6219194;23;20020;-92
2022/02/14 00:49:30;;;;;;;16.98;9.68;;;;;;;4.55;74.88;99556.66;6221000;23;20123;-92
2022/02/14 00:52:01;;;;;;;15.32;10.20;;;;;;;4.61;74.64;99572.16;6221466;23;20029;-92
2022/02/14 00:54:32;;;;;;;15.77;10.10;;;;;;;4.69;74.96;99593.72;6196171;23;20024;-93
2022/02/14 00:57:00;;;;;;;18.85;11.20;;;;;;;4.44;75.63;99553.53;6222152;23;20016;-93
2022/02/14 00:59:34;;;;;;;17.45;10.27;;;;;;;4.50;76.04;99575.16;6219604;23;20590;-93
2022/02/14 01:02:03;;;;;;;15.13;10.18;;;;;;;4.53;75.72;99575.06;6219580;23;20071;-94
2022/02/14 01:04:39;;;;;;;17.00;10.88;;;;;;;4.32;76.07;99546.13;6220045;23;20471;-93
2022/02/14 01:07:09;;;;;;;17.60;10.50;;;;;;;4.35;75.92;99552.13;6194828;23;20187;-93
2022/02/14 01:09:39;;;;;;;18.35;11.88;;;;;;;4.53;76.07;99597.81;6219542;23;20048;-93
2022/02/14 01:12:08;;;;;;;20.52;12.25;;;;;;;4.30;76.68;99568.91;6219809;23;20067;-92
2022/02/14 01:14:35;;;;;;;19.35;12.32;;;;;;;4.02;77.55;99522.69;6220150;23;20024;-95
2022/02/14 01:17:02;;;;;;;16.38;10.90;;;;;;;3.97;77.91;99529.84;6193107;23;20020;-92
2022/02/14 01:19:29;;;;;;;17.65;10.90;;;;;;;3.90;77.57;99532.72;6219514;23;20013;-92
2022/02/14 01:22:02;;;;;;;17.05;11.93;;;;;;;4.12;78.66;99570.38;6219004;23;20032;-94
2022/02/14 01:24:35;;;;;;;19.55;12.15;;;;;;;3.74;79.19;99521.91;6192758;23;20020;-92
2022/02/14 01:27:04;;;;;;;16.98;11.85;;;;;;;3.73;79.61;99526.28;6219663;23;20028;-92
2022/02/14 01:29:35;;;;;;;18.90;12.07;;;;;;;3.84;79.72;99552.97;6220162;23;20392;-93
2022/02/14 01:32:07;;;;;;;20.58;12.65;;;;;;;3.86;80.19;99573.88;6219467;23;20063;-93
2022/02/14 01:34:39;;;;;;;18.50;12.53;;;;;;;3.72;80.51;99557.75;6220448;23;20016;-92
2022/02/14 01:37:06;;;;;;;22.63;13.15;;;;;;;3.47;80.96;99529.75;6220968;23;20389;-92
2022/02/14 01:39:33;;;;;;;19.08;12.02;;;;;;;3.50;81.49;99545.34;6220618;23;20048;-92
2022/02/14 01:42:05;;;;;;;17.52;11.73;;;;;;;3.44;81.71;99540.31;6218905;23;20025;-93
2022/02/14 01:44:47;;;;;;;17.80;12.20;;;;;;;3.29;81.72;99519.03;6219533;23;20400;-93
2022/02/14 01:47:17;;;;;;;17.48;11.43;;;;;;;3.10;82.41;99492.56;6218843;23;20023;-92
2022/02/14 01:49:49;;;;;;;20.58;12.25;;;;;;;3.08;82.04;99502.22;6218706;23;20076;-93
2022/02/14 01:52:18;;;;;;;20.33;11.48;;;;;;;3.15;82.21;99501.97;6220728;23;20013;-92
2022/02/14 01:54:47;;;;;;;23.38;12.40;;;;;;;3.25;82.72;99513.03;6220867;23;20017;-93
2022/02/14 01:57:19;;;;;;;19.25;12.48;;;;;;;3.16;82.24;99508.06;6220927;23;20016;-92
2022/02/14 01:59:52;;;;;;;16.25;11.38;;;;;;;3.14;82.66;99509.88;6219492;23;20017;-94
2022/02/14 02:02:20;;;;;;;14.75;11.75;;;;;;;2.90;82.53;99481.84;6218074;23;20031;-93
2022/02/14 02:05:05;;;;;;;;;;;;;;;;;;;;;
2022/02/14 02:07:35;;;;;;;19.13;11.80;;;;;;;2.80;83.62;99478.69;6214459;23;20052;-93
2022/02/14 02:10:20;;;;;;;;;;;;;;;;;;;;;
2022/02/14 02:13:18;;;;;;;;;;;;;;;;;;;;;
2022/02/14 02:16:11;;;;;;;19.00;11.55;;;;;;;3.20;84.34;99524.53;6217941;23;20021;-92
2022/02/14 02:18:40;;;;;;;19.25;11.73;;;;;;;2.94;83.51;99468.66;6197296;23;20043;-94
2022/02/14 02:21:21;;;;;;;;;;;;;;;3.32;83.93;99518.91;6230878;23;20021;-94
2022/02/14 02:24:03;;;;;;;16.95;10.85;;;;;;;3.06;83.10;99472.63;6225098;23;19916;-94
2022/02/14 02:26:35;;;;;;;18.38;11.30;;;;;;;3.02;82.55;99461.41;6204246;23;20072;-95
2022/02/14 02:29:35;;;;;;;19.65;10.50;;;;;;;3.35;83.02;99508.34;6228176;22;20020;-93
2022/02/14 02:32:11;;;;;;;16.88;10.65;;;;;;;3.03;83.12;99468.34;6226325;23;20099;-94
2022/02/14 02:34:42;;;;;;;14.98;10.75;;;;;;;2.86;82.86;99436.63;6227006;23;20013;-93
2022/02/14 02:37:16;;;;;;;17.48;10.05;;;;;;;2.85;83.44;99439.28;6218640;23;20107;-92
2022/02/14 02:39:58;;;;;;;18.15;11.27;;;;;;;2.81;83.65;99423.72;6218752;23;20069;-93
2022/02/14 02:42:27;;;;;;;16.23;10.80;;;;;;;2.97;83.45;99452.88;6192613;23;20452;-92
2022/02/14 02:45:02;;;;;;;20.90;11.30;;;;;;;3.16;83.80;99482.75;6218919;23;20051;-92
2022/02/14 02:47:36;;;;;;;19.25;10.80;;;;;;;2.94;83.91;99439.88;6217786;23;20020;-93
2022/02/14 02:50:08;;;;;;;15.98;10.30;;;;;;;2.87;83.86;99417.44;6215306;23;20107;-94
2022/02/14 02:52:38;;;;;;;18.15;9.90;;;;;;;2.87;84.09;99411.34;6234128;23;20048;-95
2022/02/14 02:55:07;;;;;;;16.35;9.93;;;;;;;3.23;83.34;99464.25;6211803;23;20054;-96
2022/02/14 02:57:37;;;;;;;17.08;10.32;;;;;;;3.32;83.77;99474.41;6232113;23;20036;-96
2022/02/14 03:00:06;;;;;;;14.27;9.52;;;;;;;3.33;82.79;99463.03;6235650;23;20094;-94
2022/02/14 03:02:35;;;;;;;14.30;9.55;;;;;;;2.92;82.17;99399.84;6231822;23;20013;-95
2022/02/14 03:05:02;;;;;;;15.55;9.65;;;;;;;3.30;83.01;99469.25;6227375;23;20027;-93
2022/02/14 03:07:32;;;;;;;14.90;9.65;;;;;;;2.98;81.98;99420.59;6220248;23;20046;-94
2022/02/14 03:10:02;;;;;;;14.77;9.68;;;;;;;3.11;82.69;99441.97;6219509;23;20039;-95
2022/02/14 03:12:32;;;;;;;14.68;9.00;;;;;;;3.00;82.48;99426.59;6218889;23;20020;-92
2022/02/14 03:15:02;;;;;;;17.58;10.00;;;;;;;3.04;82.63;99427.34;6219869;23;20037;-93
2022/02/14 03:17:31;;;;;;;13.05;8.45;;;;;;;2.93;83.41;99412.03;6220894;23;20031;-93
2022/02/14 03:20:03;;;;;;;13.90;9.05;;;;;;;3.03;82.91;99408.19;6219020;23;20020;-93
2022/02/14 03:22:33;;;;;;;9.32;6.57;;;;;;;3.14;82.94;99405.25;6217413;23;20013;-92
2022/02/14 03:25:00;;;;;;;10.98;8.05;;;;;;;3.29;83.25;99403.91;6217340;23;20055;-93
2022/02/14 03:27:29;;;;;;;12.07;7.72;;;;;;;3.37;82.40;99410.56;6192804;23;20120;-93
2022/02/14 03:29:56;;;;;;;11.73;8.95;;;;;;;3.46;81.16;99409.44;6217475;23;20020;-94
2022/02/14 03:32:23;;;;;;;11.82;8.30;;;;;;;3.38;80.13;99383.50;6189045;23;20027;-94
2022/02/14 03:34:53;;;;;;;14.18;8.65;;;;;;;3.69;80.54;99440.03;6215796;23;20021;-93
2022/02/14 03:37:21;;;;;;;13.52;8.98;;;;;;;3.42;80.12;99392.97;6218582;23;20028;-93
2022/02/14 03:39:51;;;;;;;12.25;8.43;;;;;;;3.38;80.22;99395.72;6219961;23;20017;-93
2022/02/14 03:42:20;;;;;;;13.75;9.00;;;;;;;3.16;80.30;99374.66;6218952;23;20096;-93
2022/02/14 03:44:47;;;;;;;15.45;8.70;;;;;;;3.26;81.16;99389.16;6219552;23;20016;-95
2022/02/14 03:47:17;;;;;;;13.52;9.18;;;;;;;3.26;81.14;99398.75;6219223;23;20047;-94
2022/02/14 03:49:46;;;;;;;13.93;9.27;;;;;;;3.02;81.26;99362.03;6218171;23;20100;-93
2022/02/14 03:52:14;;;;;;;14.43;8.55;;;;;;;3.07;81.14;99380.19;6219295;23;20429;-94
2022/02/14 03:54:44;;;;;;;15.27;9.63;;;;;;;2.94;81.34;99350.97;6219110;23;20068;-93
2022/02/14 03:57:11;;;;;;;15.15;9.85;;;;;;;2.91;81.54;99356.28;6220865;23;20017;-94
2022/02/14 03:59:55;;;;;;;14.90;9.95;;;;;;;3.24;81.97;99414.50;6203214;23;20017;-95
2022/02/14 04:02:42;;;;;;;13.32;9.75;;;;;;;3.02;81.89;99388.19;6233071;23;20015;-95
2022/02/14 04:05:11;;;;;;;16.30;10.10;;;;;;;2.95;82.92;99378.84;6215381;22;20013;-95
2022/02/14 04:07:57;;;;;;;13.50;10.15;;;;;;;2.77;82.53;99358.50;6232643;23;20021;-95
2022/02/14 04:10:38;;;;;;;18.15;9.80;;;;;;;3.05;82.57;99411.63;6237107;22;20064;-95
2022/02/14 04:13:06;;;;;;;17.13;10.23;;;;;;;2.75;82.52;99370.75;6234202;23;20021;-93
2022/02/14 04:15:50;;;;;;;16.70;9.73;;;;;;;2.70;83.00;99372.66;6221496;23;20388;-93
2022/02/14 04:18:23;;;;;;;15.90;9.93;;;;;;;2.49;83.58;99345.44;6222014;23;20016;-93
2022/02/14 04:21:01;;;;;;;14.88;9.82;;;;;;;2.54;83.97;99364.44;6224968;23;20024;-92
2022/02/14 04:23:31;;;;;;;15.27;9.85;;;;;;;2.49;83.80;99353.28;6230140;22;20017;-93
2022/02/14 04:26:02;;;;;;;16.23;10.50;;;;;;;2.75;83.87;99404.75;6199430;23;20020;-95
2022/02/14 04:28:42;;;;;;;14.38;9.40;;;;;;;2.43;84.67;99346.50;6229391;23;20024;-92
2022/02/14 04:31:12;;;;;;;15.05;10.18;;;;;;;2.33;84.56;99337.22;6215408;23;20450;-94
2022/02/14 04:33:45;;;;;;;13.80;9.88;;;;;;;2.47;84.14;99370.78;6219663;23;20024;-93
2022/02/14 04:36:15;;;;;;;15.77;9.77;;;;;;;2.38;84.15;99371.03;6218951;23;20020;-92
2022/02/14 04:38:50;;;;;;;18.13;10.15;;;;;;;2.49;84.68;99402.09;6219050;23;20107;-93
2022/02/14 04:41:17;;;;;;;14.10;10.00;;;;;;;2.41;84.88;99403.16;6219035;23;20016;-93
2022/02/14 04:44:00;;;;;;;13.65;9.02;;;;;;;2.08;85.81;99344.91;6217711;23;20024;-94
2022/02/14 04:46:39;;;;;;;15.57;9.52;;;;;;;2.07;85.18;99342.34;6216938;23;20017;-94
2022/02/14 04:49:07;;;;;;;14.85;8.98;;;;;;;2.11;85.78;99341.38;6216643;23;20020;-93
2022/02/14 04:51:39;;;;;;;16.65;9.25;;;;;;;2.08;85.62;99326.66;6215915;23;20017;-91
2022/02/14 04:54:12;;;;;;;16.45;9.60;;;;;;;2.33;85.37;99380.78;6214804;23;20021;-92
2022/02/14 04:56:41;;;;;;;17.02;9.80;;;;;;;2.35;85.41;99385.06;6217435;23;20067;-93
2022/02/14 04:59:12;;;;;;;16.25;8.82;;;;;;;2.41;86.05;99378.78;6217361;23;20043;-94
2022/02/14 05:01:42;;;;;;;14.50;8.67;;;;;;;2.28;85.69;99359.16;6191879;23;20017;-93
2022/02/14 05:04:14;;;;;;;13.90;8.52;;;;;;;2.15;85.21;99337.78;6216813;23;20012;-93
2022/02/14 05:06:43;;;;;;;12.25;8.55;;;;;;;2.42;85.46;99376.13;6218695;23;20079;-94
2022/02/14 05:09:12;;;;;;;13.95;9.02;;;;;;;2.21;84.75;99323.66;6221583;23;20020;-93
2022/02/14 05:11:40;;;;;;;14.65;8.75;;;;;;;2.55;84.49;99366.16;6221735;23;20025;-92
2022/02/14 05:14:08;;;;;;;13.70;8.68;;;;;;;2.50;84.21;99355.00;6221816;23;20017;-93
2022/02/14 05:16:40;;;;;;;13.00;8.20;;;;;;;2.23;84.61;99321.88;6220977;23;20016;-94
2022/02/14 05:19:16;;;;;;;12.23;8.45;;;;;;;2.58;84.24;99397.41;6222604;22;20024;-94
2022/02/14 05:21:43;;;;;;;15.10;9.25;;;;;;;2.19;84.70;99334.19;6231755;23;20064;-95
2022/02/14 05:24:10;;;;;;;20.67;9.32;;;;;;;2.50;84.55;99396.81;6209555;23;20295;-96
2022/02/14 05:26:42;;;;;;;15.57;8.40;;;;;;;2.36;84.53;99383.31;6223267;23;20027;-92
2022/02/14 05:29:12;;;;;;;14.15;8.93;;;;;;;2.07;84.85;99343.22;6218900;23;20348;-93
2022/02/14 05:32:03;;;;;;;14.13;9.15;;;;;;;2.01;85.22;99343.41;6219572;23;20473;-93
2022/02/14 05:34:33;;;;;;;;;;;;;;;2.31;85.55;99403.47;6222762;23;20017;-93
2022/02/14 05:37:12;;;;;;;15.18;9.25;;;;;;;1.92;85.30;99346.25;6221432;23;19970;-93
2022/02/14 05:39:45;;;;;;;15.48;8.90;;;;;;;2.08;85.55;99365.81;6220470;23;20027;-93
2022/02/14 05:42:12;;;;;;;12.55;8.65;;;;;;;2.18;86.37;99383.84;6221246;23;20043;-92
2022/02/14 05:44:39;;;;;;;13.65;8.38;;;;;;;2.17;85.98;99372.53;6221666;23;20048;-92
2022/02/14 05:47:07;;;;;;;15.57;9.30;;;;;;;2.21;85.64;99368.06;6222773;23;20436;-92
2022/02/14 05:49:35;;;;;;;13.20;9.45;;;;;;;2.15;86.01;99350.84;6221330;23;20436;-93
2022/02/14 05:52:06;;;;;;;14.52;9.00;;;;;;;2.21;86.27;99345.41;6222712;23;20020;-93
2022/02/14 05:54:33;;;;;;;;;;;;;;;2.57;85.47;99394.84;6222303;23;20067;-93
2022/02/14 05:57:10;;;;;;;13.80;8.93;;;;;;;2.63;85.71;99407.75;6195940;23;20386;-92
2022/02/14 05:59:53;;;;;;;11.50;8.15;;;;;;;2.38;85.59;99331.84;6217842;23;20095;-92
2022/02/14 06:05:35;;;;;;;12.57;6.90;;;;;;;2.75;83.96;99355.94;6210372;23;20032;-91
2022/02/14 06:08:26;;;;;;;17.45;7.88;;;;;;;2.69;83.08;99326.50;6193965;23;20381;-92
2022/02/14 06:11:06;;;;;;;10.55;6.57;;;;;;;3.00;81.61;99350.75;6220598;23;20043;-93
2022/02/14 06:13:56;;;;;;;;;;;;;;;3.28;81.94;99391.72;6221997;23;20031;-93
2022/02/14 06:17:28;;;;;;;12.77;7.25;;;;;;;3.36;80.44;99392.31;6226212;23;20339;-92
2022/02/14 06:20:28;;;;;;;12.00;6.63;;;;;;;3.05;79.92;99327.94;6221321;23;20027;-92
2022/02/14 06:23:05;;;;;;;12.40;7.43;;;;;;;3.49;80.44;99385.75;6219646;23;20025;-93
2022/02/14 06:25:43;;;;;;;11.77;7.00;;;;;;;3.57;80.15;99383.72;6218457;23;20017;-92
2022/02/14 06:28:14;;;;;;;12.77;7.30;;;;;;;3.46;79.69;99349.22;6218115;23;20440;-92
2022/02/14 06:30:46;;;;;;;10.65;6.57;;;;;;;3.72;80.05;99377.09;6193803;23;20048;-93
2022/02/14 06:33:16;;;;;;;10.35;6.70;;;;;;;3.43;78.90;99323.16;6218544;23;20027;-95
2022/02/14 06:35:43;;;;;;;13.68;6.25;;;;;;;3.48;78.45;99313.34;6220019;23;20075;-93
2022/02/14 06:38:10;;;;;;;15.10;7.28;;;;;;;3.75;78.21;99353.44;6218449;23;20086;-91
2022/02/14 06:40:40;;;;;;;10.90;6.10;;;;;;;3.71;77.83;99339.59;6194801;23;20071;-90
2022/02/14 06:44:02;;;;;;;8.77;5.50;;;;;;;3.60;77.76;99319.94;6223088;23;20017;-96
2022/02/14 06:46:36;;;;;;;9.55;5.45;;;;;;;3.61;76.82;99300.72;6191853;23;20023;-96
2022/02/14 06:49:06;;;;;;;10.73;5.90;;;;;;;3.94;75.55;99349.22;6223100;22;20024;-93
2022/02/14 06:51:36;;;;;;;12.13;6.20;;;;;;;3.89;75.05;99322.34;6218506;23;20032;-93
2022/02/14 06:54:09;;;;;;;9.88;6.20;;;;;;;4.20;74.10;99363.97;6221381;23;20074;-95
2022/02/14 06:56:49;;;;;;;9.15;6.13;;;;;;;4.19;73.94;99339.53;6226949;23;20020;-94
2022/02/14 06:59:19;;;;;;;10.77;6.28;;;;;;;4.13;73.78;99328.44;6225517;23;20025;-93
2022/02/14 07:01:54;;;;;;;12.02;7.32;;;;;;;4.38;74.62;99384.25;6226002;23;20016;-91
2022/02/14 07:04:20;;;;;;;11.48;7.65;;;;;;;4.20;74.67;99362.22;6215240;23;20024;-92
2022/02/14 07:06:47;;;;;;;13.75;7.60;;;;;;;4.33;74.52;99385.34;6213788;23;20027;-91
2022/02/14 07:09:14;;;;;;;13.15;7.97;;;;;;;4.22;75.14;99367.41;6215376;23;20013;-91
2022/02/14 07:11:45;;;;;;;11.63;8.02;;;;;;;4.05;74.98;99346.22;6195639;23;20036;-92
2022/02/14 07:14:16;;;;;;;12.60;8.43;;;;;;;3.93;75.70;99338.81;6216202;23;20449;-91
2022/02/14 07:16:45;;;;;;;13.18;7.78;;;;;;;4.24;75.62;99383.94;6214732;23;20337;-91
2022/02/14 07:19:13;;;;;;;14.35;7.53;;;;;;;4.06;76.02;99351.41;6214364;23;20020;-91
2022/02/14 07:21:42;;;;;;;15.45;8.05;;;;;;;3.94;75.46;99330.03;6216293;23;20025;-93
2022/02/14 07:24:09;;;;;;;12.77;7.68;;;;;;;3.92;75.67;99337.09;6213126;23;20074;-91
2022/02/14 07:26:36;;;;;;;13.05;8.40;;;;;;;4.14;76.43;99366.81;6214236;23;20183;-91
2022/02/14 07:29:03;;;;;;;13.23;7.45;;;;;;;4.25;75.56;99372.50;6215036;23;20019;-91
2022/02/14 07:31:32;;;;;;;18.23;7.75;;;;;;;4.34;76.03;99377.41;6216265;23;20098;-92
2022/02/14 07:34:01;;;;;;;13.50;7.63;;;;;;;4.45;75.74;99370.00;6225622;23;20016;-91
2022/02/14 07:36:44;;;;;;;12.18;7.05;;;;;;;4.43;74.77;99360.47;6190374;23;20021;-93
2022/02/14 07:39:13;;;;;;;12.02;7.00;;;;;;;4.36;74.25;99344.16;6222871;23;20024;-91
2022/02/14 07:41:43;;;;;;;13.88;7.22;;;;;;;4.69;74.04;99393.56;6221433;23;20087;-92
2022/02/14 07:44:11;;;;;;;14.30;7.10;;;;;;;4.74;73.84;99392.47;6219213;23;20021;-92
2022/02/14 07:46:38;;;;;;;16.42;7.82;;;;;;;4.68;74.55;99371.75;6220549;23;20059;-92
2022/02/14 07:49:07;;;;;;;12.98;7.53;;;;;;;4.82;74.83;99389.53;6225341;23;20024;-92
2022/02/14 07:54:35;;;;;;;16.13;8.30;;;;;;;4.51;74.47;99329.59;6201726;23;20056;-96
2022/02/14 07:57:19;;;;;;;14.20;8.13;;;;;;;4.71;75.62;99373.38;6193253;23;20021;-92
2022/02/14 07:59:49;;;;;;;12.55;8.40;;;;;;;4.83;75.54;99394.72;6189664;23;20419;-91
2022/02/14 08:02:19;;;;;;;13.68;8.90;;;;;;;4.85;75.57;99398.16;6191704;23;20024;-94
2022/02/14 08:04:49;;;;;;;20.48;9.35;;;;;;;4.89;75.59;99398.88;6188354;23;20021;-91
2022/02/14 08:07:34;;;;;;;16.30;9.82;;;;;;;4.70;75.65;99366.44;6191088;23;20051;-90
2022/02/14 08:10:24;;;;;;;14.00;9.52;;;;;;;4.90;75.68;99369.09;6168184;23;20032;-89
2022/02/14 08:12:54;;;;;;;15.95;9.52;;;;;;;5.00;75.20;99370.44;6192279;23;20021;-89
2022/02/14 08:15:21;;;;;;;18.30;10.25;;;;;;;5.19;77.24;99388.94;6190284;23;20068;-90
2022/02/14 08:17:50;;;;;;;19.40;11.05;;;;;;;5.27;75.73;99394.69;6191599;23;20036;-89
2022/02/14 08:20:32;;;;;;;19.50;9.02;;;;;;;5.19;74.96;99368.78;6190293;23;20492;-90
2022/02/14 08:23:04;;;;;;;17.35;9.52;;;;;;;5.18;74.10;99351.34;6187517;23;20021;-90
2022/02/14 08:25:36;;;;;;;13.30;8.82;;;;;;;5.14;73.51;99326.13;6191012;23;20115;-89
2022/02/14 08:28:04;;;;;;;14.47;9.37;;;;;;;5.60;73.56;99388.03;6193765;23;20091;-89
2022/02/14 08:30:34;;;;;;;17.10;9.85;;;;;;;5.37;73.71;99322.50;6192624;23;20025;-89
2022/02/14 08:33:01;;;;;;;14.57;9.00;;;;;;;5.79;72.46;99374.97;6191237;23;20025;-90
2022/02/14 08:35:31;;;;;;;15.27;8.35;;;;;;;5.76;72.18;99342.72;6188573;23;20021;-90
2022/02/14 08:38:03;;;;;;;15.65;7.70;;;;;;;5.80;70.21;99328.53;6190761;23;20013;-89
2022/02/14 08:40:38;;;;;;;11.43;7.32;;;;;;;6.13;69.53;99379.63;6198181;23;20048;-89
2022/02/14 08:43:06;;;;;;;9.75;6.38;;;;;;;6.23;67.94;99370.38;6193578;23;20012;-92
2022/02/14 08:45:52;;;;;;;10.38;6.88;;;;;;;6.30;66.69;99336.75;6198151;23;20471;-92
2022/02/14 08:48:19;;;;;;;10.68;7.00;;;;;;;6.53;66.15;99336.56;6198766;23;20029;-89
2022/02/14 08:50:51;;;;;;;14.00;7.50;;;;;;;6.60;65.46;99335.34;6169639;23;20017;-89
2022/02/14 08:53:21;;;;;;;13.13;7.57;;;;;;;6.76;65.13;99339.88;6164898;23;20029;-90
2022/02/14 08:55:50;;;;;;;13.98;7.75;;;;;;;6.85;65.07;99342.06;6189343;23;20021;-90
2022/02/14 08:58:25;;;;;;;12.13;7.50;;;;;;;6.93;64.72;99326.72;6190729;23;20083;-90
2022/02/14 09:00:52;;;;;;;13.50;8.23;;;;;;;7.27;63.64;99350.47;6191139;23;20029;-90
2022/02/14 09:03:21;;;;;;;12.50;7.38;;;;;;;7.37;62.40;99350.88;6189686;23;20017;-89
2022/02/14 09:05:48;;;;;;;11.95;7.03;;;;;;;7.47;61.91;99356.50;6190640;23;20069;-90
2022/02/14 09:08:16;;;;;;;11.35;6.80;;;;;;;7.33;61.22;99318.56;6194379;23;20035;-93
2022/02/14 09:10:44;;;;;;;14.55;7.80;;;;;;;7.38;61.15;99328.88;6195237;23;20052;-89
2022/02/14 09:13:22;;;;;;;13.57;7.55;;;;;;;7.40;61.30;99354.19;6192305;23;20017;-90
2022/02/14 09:15:51;;;;;;;16.58;7.93;;;;;;;7.21;61.75;99318.34;6192565;23;20017;-89
2022/02/14 09:18:19;;;;;;;13.45;7.68;;;;;;;7.33;62.48;99338.78;6196966;23;20017;-90
2022/02/14 09:21:05;;;;;;;14.98;8.45;;;;;;;7.27;62.37;99334.66;6164494;23;20017;-90
2022/02/14 09:23:36;;;;;;;15.75;7.80;;;;;;;7.26;62.31;99332.94;6187540;23;20314;-91
2022/02/14 09:26:06;;;;;;;13.77;8.00;;;;;;;7.34;62.14;99329.94;6190251;23;20024;-89
2022/02/14 09:28:35;;;;;;;10.40;7.03;;;;;;;7.51;62.00;99335.22;6190853;23;20017;-89
2022/02/14 09:31:03;;;;;;;15.70;7.63;;;;;;;7.40;61.94;99290.97;6195394;23;20021;-90
2022/02/14 09:33:32;;;;;;;13.65;7.88;;;;;;;7.58;61.11;99285.69;6201848;23;20100;-91
2022/02/14 09:36:01;;;;;;;12.52;7.63;;;;;;;7.76;60.60;99297.88;6201341;23;20032;-91
2022/02/14 09:38:28;;;;;;;15.50;8.93;;;;;;;7.85;61.11;99305.31;6197631;23;20046;-90
2022/02/14 09:41:04;;;;;;;20.23;8.63;;;;;;;7.89;60.79;99306.84;6196806;23;20045;-89
2022/02/14 09:43:36;;;;;;;19.42;10.50;;;;;;;7.90;60.95;99305.06;6195553;23;20017;-90
2022/02/14 09:46:18;;;;;;;18.40;9.95;;;;;;;8.03;61.25;99306.09;6198799;23;20025;-91
2022/02/14 09:48:45;;;;;;;15.93;8.15;;;;;;;8.14;61.20;99297.63;6199390;23;20461;-89
2022/02/14 09:51:18;;;;;;;12.70;6.32;;;;;;;8.21;60.49;99283.16;6196547;23;20072;-90
2022/02/14 09:53:46;;;;;;;15.13;7.28;;;;;;;8.54;60.11;99296.28;6192258;23;20052;-91
2022/02/14 09:56:13;;;;;;;10.90;4.78;;;;;;;8.73;59.88;99295.19;6192474;23;20036;-89
2022/02/14 09:58:41;;;;;;;7.13;3.95;;;;;;;8.71;58.94;99256.63;6193456;23;20017;-88
2022/02/14 10:01:22;;;;;;;8.30;4.03;;;;;;;9.06;58.66;99271.28;6194346;23;20020;-89
2022/02/14 10:03:54;;;;;;;10.57;3.97;;;;;;;9.35;58.18;99303.88;6170054;23;20321;-88
2022/02/14 10:06:33;;;;;;;7.65;3.42;;;;;;;9.44;58.26;99305.16;6193619;23;20080;-91
2022/02/14 10:09:05;;;;;;;10.98;3.83;;;;;;;9.70;58.05;99322.06;6164419;23;20026;-88
2022/02/14 10:11:35;;;;;;;7.45;3.42;;;;;;;9.77;57.67;99303.09;6194836;23;20024;-88
2022/02/14 10:14:18;;;;;;;6.50;3.10;;;;;;;9.90;57.18;99294.44;6194574;23;20013;-89
2022/02/14 10:17:08;;;;;;;9.55;3.28;;;;;;;10.19;56.90;99312.00;6165568;23;20275;-91
2022/02/14 10:19:39;;;;;;;7.03;3.28;;;;;;;9.92;56.78;99258.97;6197537;23;20028;-90
2022/02/14 10:22:15;;;;;;;6.97;2.95;;;;;;;10.25;56.29;99305.47;6199677;23;20037;-89
2022/02/14 10:25:26;;;;;;;5.63;3.15;;;;;;;10.24;56.83;99288.75;6195623;23;20081;-88
2022/02/14 10:28:18;;;;;;;6.28;3.30;;;;;;;10.46;56.52;99314.72;6195375;23;20088;-89
2022/02/14 10:30:59;;;;;;;8.07;2.80;;;;;;;10.11;56.67;99251.59;6194703;23;20024;-90
2022/02/14 10:33:48;;;;;;;7.63;3.10;;;;;;;10.43;57.24;99307.81;6193791;23;20532;-90
2022/02/14 10:47:25;;;;;;;6.93;3.13;;;;;;;10.46;58.28;99318.22;6019435;22;5177436;-89
2022/02/14 10:50:26;;;;;;;6.93;3.13;;;;;;;10.07;58.35;99247.44;6235339;23;20071;-91
2022/02/14 10:53:07;;;;;;;6.43;2.92;;;;;;;10.24;58.92;99267.56;6210067;23;20020;-91
2022/02/14 10:56:10;;;;;;;5.43;3.42;;;;;;;10.28;58.83;99279.69;6234633;23;20068;-91
2022/02/14 10:59:17;;;;;;;5.57;3.03;;;;;;;10.20;59.40;99258.16;6210707;23;20016;-90
2022/02/14 11:02:44;;;;;;;4.57;3.10;;;;;;;10.21;59.20;99238.69;6234512;23;20024;-91
2022/02/14 11:05:40;;;;;;;7.65;3.10;;;;;;;10.71;59.15;99301.59;6236006;23;20082;-92
2022/02/14 11:08:21;;;;;;;6.70;3.00;;;;;;;10.69;58.71;99258.50;6235682;23;20052;-92
2022/02/14 11:10:52;;;;;;;9.98;3.58;;;;;;;10.87;58.68;99273.16;6235870;23;20023;-92
2022/02/14 11:13:31;;;;;;;7.25;2.88;;;;;;;10.89;58.14;99265.97;6232906;23;20448;-89
2022/02/14 11:16:16;;;;;;;6.88;3.10;;;;;;;10.99;58.50;99262.72;6235761;23;20020;-90
2022/02/14 11:19:00;;;;;;;4.85;2.78;;;;;;;11.09;58.67;99277.03;6231774;23;20056;-89
2022/02/14 11:21:33;;;;;;;6.95;3.10;;;;;;;11.07;58.97;99268.34;6204062;23;20013;-89
2022/02/14 11:24:17;;;;;;;7.00;3.13;;;;;;;11.17;58.92;99282.69;6231450;23;20839;-90
2022/02/14 11:26:57;;;;;;;7.03;3.25;;;;;;;11.11;58.85;99272.50;6228314;23;20040;-91
2022/02/14 11:29:24;;;;;;;9.50;2.78;;;;;;;11.15;59.88;99279.28;6203599;23;20020;-90
2022/02/14 11:32:21;;;;;;;6.60;3.47;;;;;;;11.14;59.69;99285.53;6230087;23;20020;-89
2022/02/14 11:35:17;;;;;;;5.65;3.33;;;;;;;11.08;59.83;99272.69;6230171;23;20039;-91
2022/02/14 11:37:51;;;;;;;6.97;3.60;;;;;;;11.09;60.89;99293.78;6229636;23;20032;-90
2022/02/14 11:40:28;;;;;;;7.25;3.05;;;;;;;10.92;60.40;99258.78;6228518;23;20423;-91
2022/02/14 11:43:07;;;;;;;6.15;3.17;;;;;;;10.66;60.73;99226.94;6230767;23;20020;-91
2022/02/14 11:46:04;;;;;;;7.40;3.38;;;;;;;10.85;61.17;99269.78;6228800;23;20107;-92
2022/02/14 11:48:33;;;;;;;8.00;3.15;;;;;;;10.92;60.74;99258.78;6222582;23;20032;-92
2022/02/14 11:51:23;;;;;;;14.20;4.63;;;;;;;11.07;61.07;99279.78;6196461;23;20048;-91
2022/02/14 11:53:51;;;;;;;8.60;4.88;;;;;;;11.16;61.08;99281.00;6195503;23;20017;-90
2022/02/14 11:56:17;;;;;;;15.82;6.10;;;;;;;11.19;60.85;99284.25;6225358;23;20327;-91
2022/02/14 11:59:26;;;;;;;11.30;5.13;;;;;;;11.14;60.31;99253.75;6224529;23;20021;-90
2022/02/14 12:01:59;;;;;;;9.02;4.30;;;;;;;11.37;59.86;99252.16;6219434;23;20020;-89
2022/02/14 12:04:38;;;;;;;7.82;4.22;;;;;;;11.65;60.36;99277.66;6222258;23;20028;-88
2022/02/14 12:07:25;;;;;;;9.20;3.40;;;;;;;11.79;59.58;99280.22;6130877;23;20018;-91
2022/02/14 12:10:01;;;;;;;8.77;3.58;;;;;;;11.80;59.58;99274.81;6131572;23;20026;-90
2022/02/14 12:12:43;;;;;;;5.72;3.20;;;;;;;11.82;59.46;99272.03;6106042;23;20030;-90
2022/02/14 12:21:07;;;;;;;9.25;4.68;;;;;;;11.39;60.95;99245.81;6129407;23;20018;-90
2022/02/14 12:24:11;;;;;;;7.65;3.00;;;;;;;11.45;60.96;99271.06;6131104;23;20022;-90
2022/02/14 12:26:48;;;;;;;6.00;2.83;;;;;;;11.16;61.41;99226.19;6130555;23;20078;-91
2022/02/14 12:29:32;;;;;;;9.30;3.25;;;;;;;11.22;61.65;99239.00;6132318;23;20060;-90
2022/02/14 12:32:14;;;;;;;9.38;3.78;;;;;;;10.93;62.49;99213.66;6130731;23;20409;-89
2022/02/14 12:34:43;;;;;;;9.40;3.53;;;;;;;10.81;62.82;99191.47;6130340;23;20371;-90
2022/02/14 12:37:16;;;;;;;8.30;3.08;;;;;;;11.24;63.05;99255.66;6129808;23;20034;-90
2022/02/14 12:39:46;;;;;;;6.40;3.60;;;;;;;11.07;62.38;99202.97;6221739;23;20039;-91
2022/02/14 12:42:17;;;;;;;6.13;3.03;;;;;;;11.39;62.14;99244.97;6217753;23;20012;-90